Airport View

Enter AWOS ICAO identifier for current METAR.

ex. KFNL

KSBS 261235Z AUTO 00000KT 10SM CLR 06/04 A3017 RMK AO1 T00570039

26 Jun 2019 12:59

Frequency: 118.325

Phone: 970-879-7794

Other Area AWOS: KC07 - KHDN - KCAG - K33V

TAF KEGE 261120Z 2612/2712 VRB04KT P6SM SCT200 FM261700 23008KT P6SM FEW250 FM261900 23014G24KT P6SM FEW250 FM270400 10006KT P6SM SKC